Time;durP1;ratioP1;P1;durP2;ratioP2;P2;SDS_P1;SDS_P2;PMS_P1;PMS_P2;Temp;Humidity;BMP_temperature;BMP_pressure;BME280_temperature;BME280_humidity;BME280_pressure;Samples;Min_cycle;Max_cycle;Signal;HPM_P1;HPM_P2
2023/01/19 00:01:15;;;;;;;28.60;7.33;;;;;;;-141.97;90.58;47932.34;5033835;28;20158;-86
2023/01/19 00:03:41;;;;;;;30.33;7.63;;;;;;;-141.97;90.11;47880.44;5033875;28;20598;-86
2023/01/19 00:06:06;;;;;;;30.23;7.43;;;;;;;-141.97;89.43;47861.22;5040025;28;20162;-86
2023/01/19 00:08:33;;;;;;;28.80;8.57;;;;;;;-141.97;83.48;47936.19;5051262;28;20170;-86
2023/01/19 00:10:58;;;;;;;25.90;5.77;;;;;;;-141.97;77.84;47718.97;5046947;28;20202;-86
2023/01/19 00:13:24;;;;;;;29.50;7.60;;;;;;;-141.97;76.83;47740.13;5044474;28;20166;-86
2023/01/19 00:15:49;;;;;;;25.13;5.47;;;;;;;-141.97;71.92;47807.41;5042559;28;20170;-86
2023/01/19 00:18:14;;;;;;;38.50;6.50;;;;;;;-141.97;72.57;47690.16;5036341;28;20165;-85
2023/01/19 00:20:40;;;;;;;22.67;6.10;;;;;;;-141.97;73.98;47918.88;5032870;28;20629;-86
2023/01/19 00:23:08;;;;;;;34.47;7.23;;;;;;;-141.97;76.17;47918.88;5031624;28;20166;-86
2023/01/19 00:25:41;;;;;;;39.50;7.33;;;;;;;-141.97;77.10;47857.38;5031922;28;20509;-85
2023/01/19 00:28:07;;;;;;;29.53;6.70;;;;;;;-141.97;78.16;47784.34;5032235;28;20257;-86
2023/01/19 00:30:32;;;;;;;25.40;6.20;;;;;;;-141.97;79.01;47934.25;5048173;28;20194;-85
2023/01/19 00:32:58;;;;;;;27.67;6.60;;;;;;;-141.97;79.92;47763.19;5048878;28;20173;-86
2023/01/19 00:35:23;;;;;;;41.67;8.90;;;;;;;-141.97;80.42;47859.28;5041808;28;20258;-86
2023/01/19 00:37:49;;;;;;;29.60;6.83;;;;;;;-141.97;81.04;47836.22;5040574;28;20173;-85
2023/01/19 00:40:15;;;;;;;42.80;8.90;;;;;;;-141.97;81.10;47795.88;5036888;28;20219;-86
2023/01/19 00:42:43;;;;;;;38.17;8.50;;;;;;;-141.97;81.18;47815.09;5031103;28;20590;-86
2023/01/19 00:45:14;;;;;;;27.57;6.27;;;;;;;-141.97;81.28;47836.22;5032749;28;20185;-87
2023/01/19 00:47:40;;;;;;;19.37;6.00;;;;;;;-141.97;79.83;47888.13;5032521;28;20650;-85
2023/01/19 00:50:07;;;;;;;30.87;7.00;;;;;;;-141.97;78.92;47795.88;5034659;28;20205;-88
2023/01/19 00:52:33;;;;;;;31.57;5.53;;;;;;;-141.97;73.49;47855.44;5036084;28;20620;-85
2023/01/19 00:54:58;;;;;;;32.67;4.77;;;;;;;-141.97;70.67;47870.81;5032818;28;20173;-85
2023/01/19 00:57:25;;;;;;;21.23;4.43;;;;;;;-141.97;68.61;47924.66;5032070;28;20244;-85
2023/01/19 00:59:50;;;;;;;30.27;5.83;;;;;;;-141.97;68.48;47842.00;5032016;28;20155;-86
2023/01/19 01:02:16;;;;;;;32.70;5.10;;;;;;;-141.97;66.27;47866.97;5031894;28;20166;-85
2023/01/19 01:04:41;;;;;;;36.93;5.63;;;;;;;-141.97;64.60;47807.41;5031738;28;20189;-85
2023/01/19 01:07:06;;;;;;;34.70;5.20;;;;;;;-141.97;62.66;47780.47;5030109;28;20181;-85
2023/01/19 01:09:32;;;;;;;25.37;5.57;;;;;;;-141.97;63.04;47772.78;5034494;28;20297;-85
2023/01/19 01:11:57;;;;;;;27.47;4.70;;;;;;;-141.97;60.90;47901.59;5035295;28;20263;-86
2023/01/19 01:14:23;;;;;;;35.57;5.70;;;;;;;-141.97;61.36;47753.56;5046867;28;20188;-85
2023/01/19 01:16:49;;;;;;;39.07;7.70;;;;;;;-141.97;61.44;47694.00;5035970;28;20201;-85
2023/01/19 01:19:14;;;;;;;36.07;5.23;;;;;;;-141.97;60.93;47753.56;5052078;28;20310;-86
2023/01/19 01:21:40;;;;;;;34.27;5.57;;;;;;;-141.97;60.68;47757.41;5062442;28;20167;-86
2023/01/19 01:24:06;;;;;;;28.60;5.13;;;;;;;-141.97;60.21;47780.47;5049686;28;20170;-85
2023/01/19 01:26:31;;;;;;;37.63;5.43;;;;;;;-141.97;59.60;47640.16;5051445;28;20664;-86
2023/01/19 01:28:56;;;;;;;32.83;5.00;;;;;;;-141.97;59.09;47745.88;5050025;28;20170;-86
2023/01/19 01:31:22;;;;;;;37.07;5.47;;;;;;;-141.97;58.74;47753.56;5052484;28;20185;-85
2023/01/19 01:33:47;;;;;;;35.77;5.50;;;;;;;-141.97;57.78;47890.06;5054111;28;20165;-86
2023/01/19 01:36:13;;;;;;;38.20;6.00;;;;;;;-141.97;59.26;47730.50;5051958;28;20632;-85
2023/01/19 01:38:39;;;;;;;32.03;5.30;;;;;;;-141.97;62.31;47684.38;5053772;28;20168;-85
2023/01/19 01:41:05;;;;;;;32.97;6.27;;;;;;;-141.97;64.57;47674.78;5059670;28;20185;-85
2023/01/19 01:43:47;;;;;;;32.73;6.73;;;;;;;-141.97;66.76;47818.94;5065660;28;20183;-85
2023/01/19 01:46:14;;;;;;;23.13;5.20;;;;;;;-141.97;69.24;47830.47;5056231;28;20181;-86
2023/01/19 01:48:43;;;;;;;35.77;6.80;;;;;;;-141.97;71.82;47722.81;5054826;28;20550;-85
2023/01/19 01:51:23;;;;;;;31.27;6.57;;;;;;;-141.97;73.65;47868.91;5054754;28;20244;-86
2023/01/19 01:53:58;;;;;;;36.47;7.53;;;;;;;-141.97;75.50;47784.34;5055134;28;20161;-85
2023/01/19 01:56:40;;;;;;;34.97;7.20;;;;;;;-141.97;77.50;47784.34;5054649;28;20179;-85
2023/01/19 01:59:10;;;;;;;33.50;6.90;;;;;;;-141.97;78.04;47795.88;5054627;28;20177;-87
2023/01/19 02:04:20;;;;;;;24.23;5.37;;;;;;;-141.97;79.31;47805.47;5056015;28;20261;-86
2023/01/19 02:15:05;;;;;;;25.40;6.03;;;;;;;-141.97;80.00;47928.50;5054520;28;20261;-87
2023/01/19 02:17:30;;;;;;;39.80;7.20;;;;;;;-141.97;79.97;47799.72;5052907;28;20599;-86
2023/01/19 02:19:56;;;;;;;34.77;7.07;;;;;;;-141.97;79.97;47759.34;5053770;28;20219;-86
2023/01/19 02:22:22;;;;;;;32.17;6.83;;;;;;;-141.97;79.82;47799.72;5054457;28;20214;-86
2023/01/19 02:24:48;;;;;;;26.57;6.47;;;;;;;-141.97;80.08;47801.63;5053868;28;20173;-87
2023/01/19 02:27:14;;;;;;;30.77;7.07;;;;;;;-141.97;80.24;47845.84;5052650;28;20538;-86
2023/01/19 02:29:40;;;;;;;30.93;8.30;;;;;;;-141.97;80.24;47759.34;5052360;28;20203;-86
2023/01/19 02:32:05;;;;;;;40.00;9.90;;;;;;;-141.97;79.92;47765.09;5052530;28;20176;-86
2023/01/19 02:34:31;;;;;;;36.73;8.50;;;;;;;-141.97;80.00;47755.50;5052358;28;20618;-86
2023/01/19 02:37:10;;;;;;;32.50;8.50;;;;;;;-141.97;79.83;47813.16;5053540;28;20154;-87
2023/01/19 02:39:40;;;;;;;29.40;6.70;;;;;;;-141.97;79.23;47911.19;5053526;28;20618;-86
2023/01/19 02:42:11;;;;;;;33.27;10.60;;;;;;;-141.97;79.14;47803.56;5052363;28;20201;-86
2023/01/19 02:44:38;;;;;;;32.00;6.43;;;;;;;-141.97;79.71;47818.94;5053435;28;20213;-86
2023/01/19 02:47:04;;;;;;;41.00;7.90;;;;;;;-141.97;80.27;47688.22;5052833;28;20188;-87
2023/01/19 02:49:29;;;;;;;28.27;5.80;;;;;;;-141.97;80.62;47901.59;5053404;28;20254;-87
2023/01/19 02:51:56;;;;;;;31.83;6.40;;;;;;;-141.97;79.32;47876.59;5053396;28;20657;-87
2023/01/19 02:54:40;;;;;;;29.13;5.93;;;;;;;-141.97;78.86;47813.16;5053255;28;20684;-87
2023/01/19 02:57:30;;;;;;;34.30;6.50;;;;;;;-141.97;79.71;47793.94;5053069;28;20230;-87
2023/01/19 03:00:01;;;;;;;35.33;6.37;;;;;;;-141.97;80.07;47795.88;5052029;28;20612;-87
2023/01/19 03:02:43;;;;;;;35.73;6.63;;;;;;;-141.97;79.92;47784.34;5053541;28;20162;-86
2023/01/19 03:05:08;;;;;;;36.83;6.33;;;;;;;-141.97;79.48;47815.09;5053378;28;20653;-87
2023/01/19 03:07:46;;;;;;;31.87;7.60;;;;;;;-141.97;79.58;47770.88;5053138;28;20161;-87
2023/01/19 03:10:25;;;;;;;42.67;8.40;;;;;;;-141.97;79.93;47788.19;5052707;28;20688;-87
2023/01/19 03:13:12;;;;;;;29.27;7.70;;;;;;;-141.97;80.22;47813.16;5053018;28;20579;-86
2023/01/19 03:15:51;;;;;;;36.67;8.67;;;;;;;-141.97;80.27;47805.47;5053079;28;20240;-87
2023/01/19 03:18:23;;;;;;;37.77;8.90;;;;;;;-141.97;80.16;47895.81;5051550;28;20169;-87
2023/01/19 03:20:52;;;;;;;30.27;7.97;;;;;;;-141.97;80.35;47738.19;5051680;28;20193;-87
2023/01/19 03:23:20;;;;;;;70.30;26.63;;;;;;;-141.97;80.80;47913.13;5051603;28;20184;-87
2023/01/19 03:25:48;;;;;;;66.70;25.97;;;;;;;-141.97;81.65;47780.47;5060911;28;20173;-86
2023/01/19 03:28:16;;;;;;;45.93;16.83;;;;;;;-141.97;82.41;47924.66;5053151;28;20165;-87
2023/01/19 03:30:45;;;;;;;39.87;13.40;;;;;;;-141.97;84.25;47805.47;5051449;28;20651;-86
2023/01/19 03:33:26;;;;;;;29.13;7.40;;;;;;;-141.97;86.53;47767.03;5052675;28;20173;-87
2023/01/19 03:35:56;;;;;;;31.80;7.40;;;;;;;-141.97;88.11;47938.09;5051280;28;20184;-87
2023/01/19 03:38:25;;;;;;;28.60;6.73;;;;;;;-141.97;89.18;47770.88;5069315;28;20438;-86
2023/01/19 03:40:58;;;;;;;29.30;6.40;;;;;;;-141.97;89.10;47747.81;5059444;28;20223;-85
2023/01/19 03:43:25;;;;;;;33.57;6.40;;;;;;;-141.97;88.59;47830.47;5059330;28;20168;-87
2023/01/19 03:45:52;;;;;;;25.90;5.87;;;;;;;-141.97;88.93;47891.97;5057908;28;20161;-87
2023/01/19 03:48:20;;;;;;;30.93;6.50;;;;;;;-141.97;88.11;47699.75;5052138;28;20205;-86
2023/01/19 03:50:46;;;;;;;29.63;5.93;;;;;;;-141.97;87.62;47749.72;5051117;28;20193;-86
2023/01/19 03:53:14;;;;;;;34.90;6.53;;;;;;;-141.97;87.38;47826.63;5052572;28;20225;-86
2023/01/19 03:55:47;;;;;;;32.80;9.40;;;;;;;-141.97;86.97;47868.91;5052407;28;20165;-86
2023/01/19 03:58:12;;;;;;;34.40;7.30;;;;;;;-141.97;87.06;47803.56;5051913;28;20164;-86
2023/01/19 04:00:38;;;;;;;30.67;7.80;;;;;;;-141.97;86.43;47817.00;5050091;28;20189;-87
2023/01/19 04:03:05;;;;;;;28.27;6.63;;;;;;;-141.97;86.16;47824.69;5051091;28;20565;-86
2023/01/19 04:05:31;;;;;;;29.70;7.00;;;;;;;-141.97;86.08;47934.25;5053158;28;20183;-86
2023/01/19 04:07:57;;;;;;;34.70;10.83;;;;;;;-141.97;85.86;47801.63;5052751;28;20154;-86
2023/01/19 04:10:23;;;;;;;31.23;6.97;;;;;;;-141.97;84.73;47811.25;5067224;28;20188;-86
2023/01/19 04:12:49;;;;;;;30.67;6.03;;;;;;;-141.97;84.38;47855.44;5052651;28;20161;-86
2023/01/19 04:15:15;;;;;;;28.00;6.77;;;;;;;-141.97;83.69;47801.63;5052098;28;20251;-87
2023/01/19 04:17:40;;;;;;;31.87;6.50;;;;;;;-141.97;82.88;47822.78;5067322;28;20228;-86
2023/01/19 04:20:07;;;;;;;34.53;6.93;;;;;;;-141.97;82.86;47820.84;5050919;28;20172;-86
2023/01/19 04:22:34;;;;;;;32.00;7.73;;;;;;;-141.97;83.37;47767.03;5060020;28;20181;-84
2023/01/19 04:24:59;;;;;;;30.53;7.73;;;;;;;-141.97;83.54;47793.94;5073536;28;20169;-85
2023/01/19 04:27:25;;;;;;;27.03;7.07;;;;;;;-141.97;83.50;47832.38;5054140;28;20165;-87
2023/01/19 04:29:51;;;;;;;27.80;7.23;;;;;;;-141.97;84.33;47755.50;5052652;28;20196;-86
2023/01/19 04:32:17;;;;;;;36.60;7.90;;;;;;;-141.97;84.12;47907.34;5052074;28;20165;-86
2023/01/19 04:34:42;;;;;;;34.97;6.87;;;;;;;-141.97;84.49;47828.53;5050357;28;20612;-86
2023/01/19 04:37:09;;;;;;;35.27;6.67;;;;;;;-141.97;84.57;47818.94;5067043;28;20249;-86
2023/01/19 04:39:34;;;;;;;34.20;7.20;;;;;;;-141.97;84.36;47895.81;5050620;28;20200;-86
2023/01/19 04:42:00;;;;;;;33.23;9.77;;;;;;;-141.97;84.09;47815.09;5051840;28;20196;-86
2023/01/19 04:44:26;;;;;;;31.00;7.83;;;;;;;-141.97;83.92;47861.22;5051436;28;20238;-86
2023/01/19 04:46:52;;;;;;;40.97;8.47;;;;;;;-141.97;83.71;47782.41;5052384;28;20172;-86
2023/01/19 04:49:18;;;;;;;34.13;6.67;;;;;;;-141.97;84.11;47753.56;5066700;28;20158;-86
2023/01/19 04:51:44;;;;;;;32.17;7.10;;;;;;;-141.97;83.73;47838.16;5051458;28;20227;-86
2023/01/19 04:54:09;;;;;;;42.43;11.13;;;;;;;-141.97;83.51;47797.78;5051345;28;20157;-86
2023/01/19 04:56:35;;;;;;;33.13;8.27;;;;;;;-141.97;83.39;47722.81;5057135;28;20161;-87
2023/01/19 04:59:01;;;;;;;34.97;7.67;;;;;;;-141.97;83.16;47826.63;5056349;28;20215;-87
2023/01/19 05:01:27;;;;;;;33.00;7.33;;;;;;;-141.97;82.93;47718.97;5055637;28;20618;-86
2023/01/19 05:03:52;;;;;;;35.60;7.57;;;;;;;-141.97;82.90;47895.81;5063402;28;20172;-86
2023/01/19 05:06:18;;;;;;;45.43;16.43;;;;;;;-141.97;82.85;47905.44;5053931;28;20204;-86
2023/01/19 05:08:43;;;;;;;60.20;22.70;;;;;;;-141.97;83.09;47853.53;5059651;28;20223;-86
2023/01/19 05:11:08;;;;;;;40.80;11.90;;;;;;;-141.97;82.80;47861.22;5076119;28;20307;-86
2023/01/19 05:13:34;;;;;;;39.80;10.37;;;;;;;-141.97;82.28;47799.72;5065600;28;20193;-86
2023/01/19 05:16:00;;;;;;;39.70;11.63;;;;;;;-141.97;82.50;47747.81;5062883;28;20173;-87
2023/01/19 05:18:26;;;;;;;28.23;8.00;;;;;;;-141.97;82.12;47913.13;5057033;28;20158;-87
2023/01/19 05:20:51;;;;;;;38.30;10.10;;;;;;;-141.97;82.48;47951.56;5058508;28;20160;-87
2023/01/19 05:23:16;;;;;;;40.50;11.20;;;;;;;-141.97;82.32;47751.66;5058894;28;20216;-87
2023/01/19 05:25:43;;;;;;;41.83;11.50;;;;;;;-141.97;82.18;47922.72;5058691;28;20157;-87
2023/01/19 05:28:09;;;;;;;48.37;13.63;;;;;;;-141.97;81.88;47882.38;5073655;28;20179;-87
2023/01/19 05:30:35;;;;;;;37.67;10.13;;;;;;;-141.97;82.16;47928.50;5078220;28;20264;-86
2023/01/19 05:33:00;;;;;;;40.27;9.83;;;;;;;-141.97;82.00;47780.47;5064682;28;20158;-86
2023/01/19 05:35:25;;;;;;;36.17;10.03;;;;;;;-141.97;81.69;47788.19;5049534;28;20267;-87
2023/01/19 05:37:51;;;;;;;77.23;23.20;;;;;;;-141.97;82.09;47876.59;5077900;28;20181;-87
2023/01/19 05:40:16;;;;;;;80.37;25.20;;;;;;;-141.97;82.17;47793.94;5075997;28;20633;-87
2023/01/19 05:42:41;;;;;;;51.87;16.57;;;;;;;-141.97;82.12;47788.19;5055059;28;20157;-87
2023/01/19 05:45:07;;;;;;;46.50;18.47;;;;;;;-141.97;82.31;47695.91;5056774;28;20180;-88
2023/01/19 05:47:33;;;;;;;53.10;17.17;;;;;;;-141.97;82.12;47740.13;5054370;28;20177;-87
2023/01/19 05:49:58;;;;;;;68.03;21.47;;;;;;;-141.97;82.69;47899.66;5055792;28;20644;-87
2023/01/19 05:52:24;;;;;;;60.43;20.23;;;;;;;-141.97;82.99;47899.66;5055250;28;20725;-87
2023/01/19 05:54:50;;;;;;;60.43;17.87;;;;;;;-141.97;83.33;47797.78;5054890;28;20177;-87
2023/01/19 05:57:16;;;;;;;35.77;9.10;;;;;;;-141.97;82.97;47747.81;5054453;28;20208;-87
2023/01/19 05:59:41;;;;;;;39.70;12.40;;;;;;;-141.97;83.57;47772.78;5055022;28;20584;-87
2023/01/19 06:02:07;;;;;;;41.43;12.73;;;;;;;-141.97;83.99;47888.13;5054587;28;20249;-87
2023/01/19 06:04:33;;;;;;;41.00;13.20;;;;;;;-141.97;84.70;47742.03;5054258;28;20161;-87
2023/01/19 06:06:58;;;;;;;42.53;10.23;;;;;;;-141.97;84.55;47830.47;5054554;28;20303;-87
2023/01/19 06:09:23;;;;;;;41.70;12.60;;;;;;;-141.97;85.07;47838.16;5053509;28;20224;-86
2023/01/19 06:11:49;;;;;;;48.67;13.50;;;;;;;-141.97;85.36;47807.41;5054281;28;20162;-86
2023/01/19 06:14:14;;;;;;;44.43;13.53;;;;;;;-141.97;85.19;47801.63;5054333;28;20239;-85
2023/01/19 06:16:40;;;;;;;42.90;13.57;;;;;;;-141.97;85.50;47822.78;5053242;28;20169;-87
2023/01/19 06:19:06;;;;;;;40.53;9.93;;;;;;;-141.97;85.83;47868.91;5052504;28;20189;-87
2023/01/19 06:21:32;;;;;;;39.20;9.57;;;;;;;-141.97;86.05;47834.31;5052278;28;20661;-87
2023/01/19 06:23:57;;;;;;;65.53;28.53;;;;;;;-141.97;86.63;47947.72;5053119;28;20629;-87
2023/01/19 06:26:23;;;;;;;69.27;27.43;;;;;;;-141.97;86.36;47828.53;5053110;28;20531;-86
2023/01/19 06:28:50;;;;;;;104.93;41.80;;;;;;;-141.97;86.39;47728.59;5053872;28;20244;-86
2023/01/19 06:31:16;;;;;;;98.53;42.67;;;;;;;-141.97;86.09;47780.47;5048035;28;20194;-86
2023/01/19 06:33:41;;;;;;;87.97;33.53;;;;;;;-141.97;86.31;47822.78;5034659;28;20169;-86
2023/01/19 06:36:07;;;;;;;52.87;13.87;;;;;;;-141.97;86.98;47828.53;5026934;28;20173;-86
2023/01/19 06:38:32;;;;;;;40.77;10.97;;;;;;;-141.97;86.43;47703.59;5052361;28;20549;-86
2023/01/19 06:40:58;;;;;;;40.57;9.60;;;;;;;-141.97;86.26;47740.13;5053816;28;20648;-86
2023/01/19 06:43:24;;;;;;;35.43;9.30;;;;;;;-141.97;85.53;47930.41;5054179;28;20234;-86
2023/01/19 06:45:50;;;;;;;61.43;27.53;;;;;;;-141.97;85.30;47849.69;5053551;28;20161;-85
2023/01/19 06:48:16;;;;;;;66.50;25.70;;;;;;;-141.97;84.93;47861.22;5054031;28;20161;-86
2023/01/19 06:50:44;;;;;;;64.03;24.80;;;;;;;-141.97;84.30;47828.53;5052227;28;20270;-86
2023/01/19 06:53:09;;;;;;;54.77;17.80;;;;;;;-141.97;83.50;47772.78;5053354;28;20235;-86
2023/01/19 06:55:35;;;;;;;50.40;13.33;;;;;;;-141.97;83.02;47868.91;5051499;28;20252;-87
2023/01/19 06:58:00;;;;;;;49.87;14.33;;;;;;;-141.97;82.55;47757.41;5051931;28;20255;-86
2023/01/19 07:00:26;;;;;;;45.97;17.07;;;;;;;-141.97;82.32;47767.03;5053391;28;20226;-86
2023/01/19 07:02:52;;;;;;;103.43;40.33;;;;;;;-141.97;80.75;47822.78;5053554;28;20165;-86
2023/01/19 07:05:17;;;;;;;74.63;26.87;;;;;;;-141.97;80.57;47765.09;5071834;28;20224;-84
2023/01/19 07:07:44;;;;;;;51.13;14.63;;;;;;;-141.97;79.11;47826.63;5068761;28;20555;-86
2023/01/19 07:10:11;;;;;;;56.43;14.50;;;;;;;-141.97;78.51;47767.03;5052267;28;20204;-87
2023/01/19 07:12:37;;;;;;;60.40;14.53;;;;;;;-141.97;77.70;47761.25;5053034;28;20625;-86
2023/01/19 07:15:04;;;;;;;43.60;11.53;;;;;;;-141.97;76.96;47888.13;5050993;28;20260;-88
2023/01/19 07:17:29;;;;;;;57.40;12.80;;;;;;;-141.97;76.35;47834.31;5053122;28;20269;-88
2023/01/19 07:19:55;;;;;;;46.23;11.73;;;;;;;-141.97;74.69;47893.91;5051691;28;20257;-89
2023/01/19 07:22:20;;;;;;;50.10;14.10;;;;;;;-141.97;72.64;47680.53;5052780;28;20158;-89
2023/01/19 07:24:46;;;;;;;71.07;20.50;;;;;;;-141.97;72.13;47676.69;5051216;28;20177;-89
2023/01/19 07:27:11;;;;;;;85.53;30.47;;;;;;;-141.97;71.72;47849.69;5049973;28;20638;-91
2023/01/19 07:29:37;;;;;;;61.77;16.67;;;;;;;-141.97;71.56;47870.81;5068125;28;20193;-88
2023/01/19 07:32:03;;;;;;;47.17;12.70;;;;;;;-141.97;70.80;47893.91;5053169;28;20590;-89
2023/01/19 07:34:28;;;;;;;43.90;12.20;;;;;;;-141.97;70.69;47701.69;5064922;28;20546;-88
2023/01/19 07:36:54;;;;;;;51.83;14.40;;;;;;;-141.97;70.44;47665.16;5052953;28;20181;-89
2023/01/19 07:39:20;;;;;;;62.67;13.80;;;;;;;-141.97;70.37;47888.13;5042797;28;20324;-90
2023/01/19 07:41:47;;;;;;;49.60;11.40;;;;;;;-141.97;70.43;47930.41;5052964;28;20592;-89
2023/01/19 07:44:13;;;;;;;42.27;8.63;;;;;;;-141.97;68.74;47670.91;5052388;28;20166;-90
2023/01/19 07:46:38;;;;;;;51.77;9.60;;;;;;;-141.97;68.47;47857.38;5051223;28;20187;-89
2023/01/19 07:49:04;;;;;;;37.90;8.80;;;;;;;-141.97;67.96;47622.88;5051315;28;20231;-89
2023/01/19 07:51:29;;;;;;;56.63;12.40;;;;;;;-141.97;67.91;47828.53;5052060;28;20848;-89
2023/01/19 07:53:55;;;;;;;42.07;10.20;;;;;;;-141.97;67.36;47678.63;5051240;28;20172;-89
2023/01/19 07:56:22;;;;;;;54.67;9.47;;;;;;;-141.97;66.34;47715.13;5050331;28;20161;-89
2023/01/19 07:58:49;;;;;;;34.37;9.07;;;;;;;-141.97;65.96;47597.88;5050880;28;20169;-89
2023/01/19 08:01:14;;;;;;;39.70;9.03;;;;;;;-141.97;66.36;47772.78;5052459;28;20168;-89
2023/01/19 08:03:40;;;;;;;39.70;8.47;;;;;;;-141.97;65.59;47792.03;5051919;28;20610;-88
2023/01/19 08:06:06;;;;;;;33.97;6.97;;;;;;;-141.97;65.40;47757.41;5050239;28;20169;-89
2023/01/19 08:08:32;;;;;;;43.93;8.73;;;;;;;-141.97;65.14;47836.22;5049454;28;20177;-89
2023/01/19 08:10:58;;;;;;;40.03;9.00;;;;;;;-141.97;64.65;47665.16;5050647;28;20791;-89
2023/01/19 08:13:25;;;;;;;47.27;8.87;;;;;;;-141.97;62.85;47701.69;5049744;28;20200;-88
2023/01/19 08:15:52;;;;;;;38.60;8.27;;;;;;;-141.97;62.20;47722.81;5052642;28;20172;-89
2023/01/19 08:18:18;;;;;;;50.30;8.23;;;;;;;-141.97;61.22;47611.34;5054626;28;20169;-90
2023/01/19 08:20:44;;;;;;;39.77;8.33;;;;;;;-141.97;60.65;47594.03;5055890;28;20166;-87
2023/01/19 08:23:10;;;;;;;37.90;7.30;;;;;;;-141.97;59.64;47849.69;5050168;28;20211;-88
2023/01/19 08:25:43;;;;;;;49.33;10.37;;;;;;;-141.97;59.86;47761.25;5037788;28;20510;-88
2023/01/19 08:28:10;;;;;;;43.83;8.70;;;;;;;-141.97;59.20;47872.75;5047258;28;20192;-88
2023/01/19 08:30:36;;;;;;;36.63;9.13;;;;;;;-141.97;58.48;47872.75;5048185;28;20286;-89
2023/01/19 08:33:06;;;;;;;38.13;8.07;;;;;;;-141.97;58.76;47638.25;5069567;28;20197;-88
2023/01/19 08:35:38;;;;;;;40.70;8.30;;;;;;;-141.97;59.86;47765.09;5052277;28;20173;-88
2023/01/19 08:38:05;;;;;;;37.43;7.77;;;;;;;-141.97;60.51;47703.59;5041123;28;20302;-88
2023/01/19 08:40:35;;;;;;;45.97;8.47;;;;;;;-141.97;59.60;47834.31;5049950;28;20177;-88
2023/01/19 08:43:06;;;;;;;43.90;8.23;;;;;;;-141.97;58.68;47726.66;5051649;28;20165;-90
2023/01/19 08:45:33;;;;;;;43.77;8.30;;;;;;;-141.97;57.83;47793.94;5049776;28;20265;-88
2023/01/19 08:47:59;;;;;;;40.63;8.63;;;;;;;-141.97;56.33;47722.81;5049872;28;20572;-88
2023/01/19 08:50:25;;;;;;;35.47;7.73;;;;;;;-141.97;55.36;47803.56;5051170;28;20192;-89
2023/01/19 08:52:51;;;;;;;38.40;7.17;;;;;;;-141.97;54.74;47824.69;5049674;28;20221;-89
2023/01/19 08:55:16;;;;;;;39.13;7.77;;;;;;;-141.97;54.68;47799.72;5066651;28;21049;-89
2023/01/19 08:57:42;;;;;;;48.20;9.87;;;;;;;-141.97;54.75;47686.31;5049653;28;20185;-89
2023/01/19 09:00:09;;;;;;;41.47;7.80;;;;;;;-141.97;53.74;47644.00;5050743;28;20204;-89
2023/01/19 09:02:35;;;;;;;40.27;9.53;;;;;;;-141.97;54.49;47872.75;5050228;28;20177;-89
2023/01/19 09:05:00;;;;;;;53.30;9.73;;;;;;;-141.97;54.68;47663.22;5050212;28;20279;-88
2023/01/19 09:07:27;;;;;;;44.53;8.50;;;;;;;-141.97;54.44;47580.59;5063513;28;20216;-89
2023/01/19 09:09:53;;;;;;;42.37;8.53;;;;;;;-141.97;53.87;47695.91;5056431;28;20586;-90
2023/01/19 09:12:18;;;;;;;46.67;11.27;;;;;;;-141.97;53.36;47876.59;5046406;28;20674;-89
2023/01/19 09:14:44;;;;;;;41.67;8.50;;;;;;;-141.97;53.40;47851.59;5041148;28;20642;-90
2023/01/19 09:17:09;;;;;;;37.93;8.63;;;;;;;-141.97;53.89;47609.41;5044247;28;20178;-89
2023/01/19 09:19:35;;;;;;;35.97;9.17;;;;;;;-141.97;53.96;47903.50;5052099;28;20172;-89
2023/01/19 09:22:00;;;;;;;49.73;8.87;;;;;;;-141.97;52.86;47718.97;5051614;28;20165;-89
2023/01/19 09:24:25;;;;;;;48.43;8.30;;;;;;;-141.97;52.63;47792.03;5066690;28;20169;-90
2023/01/19 09:26:51;;;;;;;42.03;8.93;;;;;;;-141.97;53.06;47765.09;5066151;28;20633;-91
2023/01/19 09:29:16;;;;;;;38.93;7.53;;;;;;;-141.97;52.62;47863.13;5050192;28;20208;-89
2023/01/19 09:31:42;;;;;;;49.93;7.63;;;;;;;-141.97;52.56;47753.56;5066261;28;20733;-87
2023/01/19 09:34:09;;;;;;;39.43;7.80;;;;;;;-141.97;51.86;47713.22;5048120;28;20224;-87
2023/01/19 09:36:36;;;;;;;40.00;7.87;;;;;;;-141.97;51.59;47790.09;5049668;28;20273;-87
2023/01/19 09:39:02;;;;;;;38.07;7.43;;;;;;;-141.97;50.66;47711.28;5042220;28;20216;-87
2023/01/19 09:41:28;;;;;;;41.10;7.90;;;;;;;-141.97;49.96;47715.13;5049042;28;20176;-79
2023/01/19 09:43:57;;;;;;;42.07;8.97;;;;;;;-141.97;49.68;47717.06;5050234;28;20542;-79
2023/01/19 09:46:33;;;;;;;40.37;9.63;;;;;;;-141.97;48.50;47676.69;5050497;28;20169;-79
2023/01/19 09:49:03;;;;;;;43.23;7.23;;;;;;;-141.97;47.93;47749.72;5052016;28;20232;-79
2023/01/19 09:51:36;;;;;;;36.97;6.67;;;;;;;-141.97;47.62;47872.75;5064970;28;20240;-79
2023/01/19 09:54:12;;;;;;;34.37;7.13;;;;;;;-141.97;47.60;47732.44;5053498;28;20256;-80
2023/01/19 09:56:38;;;;;;;30.20;6.43;;;;;;;-141.97;46.77;47680.53;5053377;28;20379;-80
2023/01/19 09:59:31;;;;;;;32.70;7.10;;;;;;;-141.97;46.41;47718.97;5054437;28;20229;-80
2023/01/19 10:02:15;;;;;;;42.00;7.53;;;;;;;-141.97;46.22;47695.91;4991868;28;20191;-79
2023/01/19 10:04:41;;;;;;;33.00;6.10;;;;;;;-141.97;46.28;47726.66;4992336;28;20172;-79
2023/01/19 10:07:12;;;;;;;42.80;6.70;;;;;;;-141.97;47.05;47692.06;4992407;28;20194;-79
2023/01/19 10:09:46;;;;;;;37.07;8.10;;;;;;;-141.97;47.33;47818.94;5004718;28;20187;-80
2023/01/19 10:12:15;;;;;;;33.27;6.73;;;;;;;-141.97;46.44;47686.31;5011057;28;20191;-79
2023/01/19 10:15:00;;;;;;;36.70;7.03;;;;;;;-141.97;45.43;47655.53;5006671;28;20675;-79
2023/01/19 10:17:44;;;;;;;33.73;5.97;;;;;;;-141.97;44.81;47699.75;5000208;28;20186;-79
2023/01/19 10:20:35;;;;;;;33.40;6.10;;;;;;;-141.97;44.18;47690.16;5000497;28;20187;-79
2023/01/19 10:23:13;;;;;;;28.40;5.70;;;;;;;-141.97;43.15;47692.06;4995180;28;20275;-79
2023/01/19 10:25:39;;;;;;;36.60;7.43;;;;;;;-141.97;42.31;47659.38;4975593;28;20675;-79
2023/01/19 10:28:04;;;;;;;31.27;6.90;;;;;;;-141.97;42.97;47686.31;4993210;28;20179;-79
2023/01/19 10:30:30;;;;;;;36.80;6.33;;;;;;;-141.97;41.00;47674.78;4991503;28;20731;-79
2023/01/19 10:32:56;;;;;;;43.23;6.37;;;;;;;-141.97;39.74;47678.63;4991635;28;20187;-79
2023/01/19 10:35:23;;;;;;;33.00;5.80;;;;;;;-141.97;38.60;47676.69;5002195;28;20233;-79
2023/01/19 10:37:55;;;;;;;31.33;5.93;;;;;;;-141.97;38.96;47676.69;5019721;28;20202;-79
2023/01/19 10:40:32;;;;;;;33.40;6.10;;;;;;;-141.97;37.84;47686.31;5060344;28;20763;-79
2023/01/19 10:42:57;;;;;;;37.07;5.83;;;;;;;-141.97;36.35;47680.53;5060633;28;20188;-79
2023/01/19 10:45:28;;;;;;;30.13;5.43;;;;;;;-141.97;34.85;47644.00;5057500;28;20165;-79
2023/01/19 10:47:56;;;;;;;27.63;5.60;;;;;;;-141.97;32.94;47659.38;5053777;28;20173;-78
2023/01/19 10:50:28;;;;;;;26.77;5.00;;;;;;;-141.97;33.06;47644.00;5053383;28;20193;-79
2023/01/19 10:53:00;;;;;;;25.03;6.03;;;;;;;-141.97;32.94;47699.75;5053024;28;20229;-79
2023/01/19 10:55:37;;;;;;;27.97;5.23;;;;;;;-141.97;32.45;47644.00;5053059;28;20178;-79
2023/01/19 10:58:04;;;;;;;33.17;6.10;;;;;;;-141.97;32.69;47607.50;5062939;28;20181;-80
2023/01/19 11:00:41;;;;;;;30.40;4.43;;;;;;;-141.97;31.67;47630.56;5072844;28;20158;-79
2023/01/19 11:03:30;;;;;;;30.63;5.30;;;;;;;-141.97;31.44;47659.38;5072886;28;20159;-79
2023/01/19 11:06:32;;;;;;;30.47;6.07;;;;;;;-141.97;33.49;47657.47;5053839;28;20268;-80
2023/01/19 11:09:20;;;;;;;26.67;5.20;;;;;;;-141.97;33.52;47619.03;5009559;28;20178;-78
2023/01/19 11:11:51;;;;;;;26.23;5.30;;;;;;;-141.97;33.23;47592.13;5010197;28;20276;-78
2023/01/19 11:14:23;;;;;;;32.63;6.00;;;;;;;-141.97;33.03;47580.59;5010561;28;20222;-80
2023/01/19 11:16:54;;;;;;;35.47;5.13;;;;;;;-141.97;32.15;47651.69;5009940;28;20238;-77
2023/01/19 11:19:31;;;;;;;21.30;4.85;;;;;;;-141.97;32.47;47613.25;4990467;28;20173;-78
2023/01/19 11:22:20;;;;;;;29.98;5.13;;;;;;;-141.97;31.54;47680.53;4990618;28;20547;-78